Hlavní strana
METAR-TAF:

METAR-TAF

Letiště :

Madison, Indiana, Spojené státy americké

zeměpisná šířka: 38-45-36N, zeměpisná délka: 085-27-53W, výška: 250 m

Aktuální stav počasí

Zpráva byla vytvořena před 26 minutami, v 23:55 UTC
Severozápadní vítr 17 kt s nárazy do 31 kt
Teplota 7°C
Vlhkost vzduchu 45%
Tlak 1020 hPa
Viditelnost: 16.1 km
Polojasno ve výšce 8000 ft

METAR: KIMS 202355Z AUTO 32017G31KT 10SM SCT080 07/M04 A3011 RMK AO1

Čas: 20:21 (00:21 UTC)


TAF: chybějící

Stav a předpovědi počasí z více než 4 000 letišť (zprávy METAR a TAF).

Červené a žluté tečky na mapě představují dostupné meteorologické stanice.

Když kurzor umístíte na tečku, zobrazí se název stanice.

Pak kliknutím zobrazíte stav a předpověď počasí.

Chcete-li změnit mapu, kliknutím na zelené tlačítko se znaménkem +mapu přiblížíte, kliknutím na zelené tlačítko se znaménkem – mapu oddálíte a kliknutím na zelené šipky přejdete na sousední mapy.


METAR-TAF: